createdAt,value
2023-05-19T00:01:37.855Z,100242.06
2023-05-19T00:04:05.832Z,100240.00
2023-05-19T00:06:33.714Z,100242.91
2023-05-19T00:09:07.437Z,100241.00
2023-05-19T00:11:38.896Z,100240.00
2023-05-19T00:14:08.454Z,100236.72
2023-05-19T00:16:38.102Z,100240.53
2023-05-19T00:19:10.364Z,100237.00
2023-05-19T00:21:39.328Z,100232.06
2023-05-19T00:24:07.686Z,100233.00
2023-05-19T00:26:37.325Z,100228.16
2023-05-19T00:29:06.032Z,100222.78
2023-05-19T00:31:34.709Z,100226.28
2023-05-19T00:34:02.325Z,100227.06
2023-05-19T00:36:30.008Z,100230.44
2023-05-19T00:38:57.450Z,100241.25
2023-05-19T00:41:26.409Z,100228.91
2023-05-19T00:43:54.425Z,100228.50
2023-05-19T00:46:23.301Z,100231.13
2023-05-19T00:48:50.867Z,100233.03
2023-05-19T00:51:19.521Z,100229.72
2023-05-19T00:53:49.586Z,100236.22
2023-05-19T00:56:19.240Z,100236.59
2023-05-19T00:58:47.362Z,100230.59
2023-05-19T01:01:17.381Z,100240.19
2023-05-19T01:03:45.596Z,100238.09
2023-05-19T01:06:15.475Z,100233.38
2023-05-19T01:08:43.732Z,100229.16
2023-05-19T01:11:11.466Z,100232.94
2023-05-19T01:13:41.816Z,100233.69
2023-05-19T01:16:18.256Z,100238.84
2023-05-19T01:19:11.374Z,100233.66
2023-05-19T01:22:13.385Z,100239.31
2023-05-19T01:25:03.539Z,100234.81
2023-05-19T01:28:03.589Z,100236.88
2023-05-19T01:30:33.165Z,100229.94
2023-05-19T01:33:07.428Z,100235.59
2023-05-19T01:35:39.367Z,100225.53
2023-05-19T01:38:10.252Z,100225.69
2023-05-19T01:40:41.359Z,100217.63
2023-05-19T01:43:20.998Z,100225.22
2023-05-19T01:45:51.184Z,100224.00
2023-05-19T01:48:19.918Z,100221.16
2023-05-19T01:50:48.595Z,100216.59
2023-05-19T01:53:16.529Z,100185.38
2023-05-19T01:55:50.297Z,100205.91
2023-05-19T01:58:29.922Z,100212.03
2023-05-19T02:01:16.124Z,100217.28
2023-05-19T02:03:54.040Z,100221.09
2023-05-19T02:06:56.556Z,100221.34
2023-05-19T02:09:40.897Z,100218.84
2023-05-19T02:12:38.164Z,100212.56
2023-05-19T02:15:16.508Z,100219.09
2023-05-19T02:17:51.999Z,100211.25
2023-05-19T02:20:22.753Z,100214.47
2023-05-19T02:22:50.941Z,100209.19
2023-05-19T02:25:19.360Z,100196.44
2023-05-19T02:27:49.330Z,100201.59
2023-05-19T02:30:17.077Z,100202.25
2023-05-19T02:32:46.938Z,100196.22
2023-05-19T02:35:16.951Z,100192.50
2023-05-19T02:37:44.607Z,100190.81
2023-05-19T02:40:12.942Z,100184.69
2023-05-19T02:42:41.493Z,100201.06
2023-05-19T02:45:10.383Z,100185.91
2023-05-19T02:47:41.745Z,100188.41
2023-05-19T02:50:09.796Z,100157.19
2023-05-19T02:52:37.333Z,100154.81
2023-05-19T02:55:06.131Z,100168.13
2023-05-19T02:57:34.974Z,100186.00
2023-05-19T03:00:03.883Z,100196.31
2023-05-19T03:02:35.659Z,100204.63
2023-05-19T03:05:04.116Z,100201.59
2023-05-19T03:07:32.362Z,100210.47
2023-05-19T03:10:00.265Z,100214.72
2023-05-19T03:12:27.720Z,100217.44
2023-05-19T03:14:55.782Z,100202.44
2023-05-19T03:17:23.894Z,100212.41
2023-05-19T03:19:53.834Z,100217.81
2023-05-19T03:22:23.015Z,100214.97
2023-05-19T03:24:51.943Z,100222.34
2023-05-19T03:27:22.647Z,100216.88
2023-05-19T03:29:51.106Z,100214.97
2023-05-19T03:32:21.550Z,100210.41
2023-05-19T03:34:51.352Z,100215.25
2023-05-19T03:37:19.444Z,100209.84
2023-05-19T03:39:47.220Z,100214.84
2023-05-19T03:42:14.982Z,100220.19
2023-05-19T03:44:42.827Z,100218.84
2023-05-19T03:47:11.242Z,100229.53
2023-05-19T03:49:59.288Z,100230.25
2023-05-19T03:52:53.766Z,100232.38
2023-05-19T03:55:41.939Z,100225.34
2023-05-19T03:58:10.827Z,100224.66
2023-05-19T04:00:38.732Z,100230.31
2023-05-19T04:03:08.806Z,100228.91
2023-05-19T04:05:36.946Z,100233.91
2023-05-19T04:08:05.868Z,100223.38
2023-05-19T04:10:33.987Z,100214.84
2023-05-19T04:13:02.606Z,100228.84
2023-05-19T04:15:30.677Z,100221.41
2023-05-19T04:17:58.180Z,100216.66
2023-05-19T04:20:26.272Z,100221.25
2023-05-19T04:22:54.518Z,100220.22
2023-05-19T04:25:28.173Z,100227.00
2023-05-19T04:27:58.079Z,100231.13
2023-05-19T04:30:26.189Z,100247.53
2023-05-19T04:32:55.287Z,100255.00
2023-05-19T04:35:23.274Z,100257.09
2023-05-19T04:37:54.459Z,100254.47
2023-05-19T04:40:31.518Z,100261.56
2023-05-19T04:43:02.384Z,100260.69
2023-05-19T04:45:33.315Z,100269.47
2023-05-19T04:48:02.756Z,100257.94
2023-05-19T04:50:32.673Z,100265.47
2023-05-19T04:53:01.055Z,100247.31
2023-05-19T04:55:30.089Z,100261.34
2023-05-19T04:58:00.161Z,100254.00
2023-05-19T05:00:29.848Z,100258.00
2023-05-19T05:03:07.872Z,100261.84
2023-05-19T05:05:36.796Z,100260.97
2023-05-19T05:08:04.514Z,100266.63
2023-05-19T05:10:40.432Z,100265.97
2023-05-19T05:13:09.585Z,100258.25
2023-05-19T05:15:39.349Z,100268.69
2023-05-19T05:18:07.189Z,100273.94
2023-05-19T05:20:36.057Z,100257.16
2023-05-19T05:23:03.939Z,100269.75
2023-05-19T05:25:33.582Z,100279.25
2023-05-19T05:28:05.332Z,100278.88
2023-05-19T05:30:35.566Z,100245.94
2023-05-19T05:33:04.298Z,100276.56
2023-05-19T05:35:35.254Z,100275.91
2023-05-19T05:38:04.170Z,100277.22
2023-05-19T05:40:33.362Z,100285.03
2023-05-19T05:43:01.278Z,100283.88
2023-05-19T05:45:32.731Z,100286.16
2023-05-19T05:48:01.956Z,100296.00
2023-05-19T05:50:32.152Z,100293.97
2023-05-19T05:53:01.826Z,100294.84
2023-05-19T05:55:30.198Z,100290.59
2023-05-19T05:58:02.263Z,100289.69
2023-05-19T06:00:31.275Z,100289.31
2023-05-19T06:02:59.587Z,100292.50
2023-05-19T06:05:27.463Z,100293.38
2023-05-19T06:07:56.005Z,100293.22
2023-05-19T06:10:26.849Z,100309.22
2023-05-19T06:12:56.062Z,100321.22
2023-05-19T06:15:27.041Z,100317.13
2023-05-19T06:18:05.227Z,100315.34
2023-05-19T06:20:33.429Z,100313.50
2023-05-19T06:23:01.622Z,100314.47
2023-05-19T06:25:30.629Z,100311.91
2023-05-19T06:27:58.448Z,100324.28
2023-05-19T06:30:26.344Z,100321.16
2023-05-19T06:33:08.108Z,100322.44
2023-05-19T06:35:35.867Z,100321.41
2023-05-19T06:38:03.666Z,100309.53
2023-05-19T06:40:31.511Z,100325.31
2023-05-19T06:42:59.127Z,100320.75
2023-05-19T06:45:53.038Z,100334.50
2023-05-19T06:48:21.745Z,100326.97
2023-05-19T06:50:50.862Z,100330.28
2023-05-19T06:53:21.162Z,100325.31
2023-05-19T06:55:59.432Z,100340.66
2023-05-19T06:58:30.761Z,100331.63
2023-05-19T07:00:59.725Z,100342.88
2023-05-19T07:03:31.930Z,100337.44
2023-05-19T07:06:00.410Z,100344.22
2023-05-19T07:08:28.694Z,100345.19
2023-05-19T07:10:57.294Z,100333.06
2023-05-19T07:13:27.481Z,100338.22
2023-05-19T07:15:56.730Z,100336.16
2023-05-19T07:18:25.757Z,100326.44
2023-05-19T07:20:54.180Z,100315.63
2023-05-19T07:23:21.881Z,100325.28
2023-05-19T07:25:50.182Z,100330.44
2023-05-19T07:28:17.520Z,100329.22
2023-05-19T07:30:45.316Z,100332.31
2023-05-19T07:33:12.760Z,100322.16
2023-05-19T07:35:40.455Z,100333.78
2023-05-19T07:38:07.845Z,100339.44
2023-05-19T07:40:35.755Z,100346.47
2023-05-19T07:43:03.239Z,100329.41
2023-05-19T07:45:30.847Z,100339.03
2023-05-19T07:47:58.201Z,100328.63
2023-05-19T07:50:26.072Z,100333.84
2023-05-19T07:52:53.469Z,100335.09
2023-05-19T07:55:23.328Z,100330.72
2023-05-19T07:57:51.296Z,100335.66
2023-05-19T08:00:19.376Z,100344.22
2023-05-19T08:02:47.526Z,100346.97
2023-05-19T08:05:15.242Z,100352.00
2023-05-19T08:07:42.566Z,100352.84
2023-05-19T08:10:10.426Z,100354.56
2023-05-19T08:12:37.859Z,100355.38
2023-05-19T08:15:05.974Z,100352.47
2023-05-19T08:17:33.371Z,100349.53
2023-05-19T08:20:00.959Z,100348.25
2023-05-19T08:22:28.307Z,100357.44
2023-05-19T08:24:57.152Z,100353.28
2023-05-19T08:27:24.623Z,100359.06
2023-05-19T08:29:52.278Z,100358.22
2023-05-19T08:32:19.624Z,100329.88
2023-05-19T08:34:47.348Z,100354.53
2023-05-19T08:37:14.809Z,100354.88
2023-05-19T08:39:42.823Z,100348.59
2023-05-19T08:42:10.391Z,100341.09
2023-05-19T08:44:38.354Z,100339.69
2023-05-19T08:47:06.540Z,100347.09
2023-05-19T08:49:43.079Z,100324.88
2023-05-19T08:52:19.924Z,100333.03
2023-05-19T08:54:55.069Z,100334.72
2023-05-19T08:57:25.303Z,100342.41
2023-05-19T08:59:55.068Z,100336.69
2023-05-19T09:02:23.757Z,100345.91
2023-05-19T09:04:53.022Z,100342.28
2023-05-19T09:07:21.360Z,100341.56
2023-05-19T09:09:49.512Z,100350.25
2023-05-19T09:12:16.937Z,100349.47
2023-05-19T09:14:44.674Z,100340.09
2023-05-19T09:17:12.202Z,100338.94
2023-05-19T09:19:44.691Z,100342.28
2023-05-19T09:22:12.061Z,100327.53
2023-05-19T09:24:40.705Z,100328.00
2023-05-19T09:27:08.410Z,100322.44
2023-05-19T09:29:36.174Z,100320.94
2023-05-19T09:32:05.452Z,100329.84
2023-05-19T09:34:33.204Z,100323.16
2023-05-19T09:37:00.694Z,100334.53
2023-05-19T09:39:29.040Z,100336.47
2023-05-19T09:41:58.989Z,100330.69
2023-05-19T09:44:30.743Z,100329.22
2023-05-19T09:46:58.896Z,100325.00
2023-05-19T09:49:33.035Z,100325.19
2023-05-19T09:52:06.547Z,100323.97
2023-05-19T09:54:34.853Z,100319.53
2023-05-19T09:57:04.827Z,100314.47
2023-05-19T09:59:34.085Z,100319.44
2023-05-19T10:02:04.200Z,100311.72
2023-05-19T10:04:32.355Z,100322.06
2023-05-19T10:07:00.713Z,100320.81
2023-05-19T10:09:30.122Z,100320.84
2023-05-19T10:11:59.718Z,100318.47
2023-05-19T10:14:28.998Z,100320.38
2023-05-19T10:16:58.911Z,100312.31
2023-05-19T10:19:30.191Z,100303.22
2023-05-19T10:21:57.906Z,100311.00
2023-05-19T10:24:26.813Z,100313.00
2023-05-19T10:26:56.833Z,100317.91
2023-05-19T10:29:29.295Z,100306.22
2023-05-19T10:32:01.360Z,100311.34
2023-05-19T10:35:07.688Z,100326.91
2023-05-19T10:37:51.864Z,100323.59
2023-05-19T10:40:33.201Z,100327.28
2023-05-19T10:43:26.250Z,100332.16
2023-05-19T10:45:55.385Z,100314.88
2023-05-19T10:48:23.372Z,100327.94
2023-05-19T10:50:55.313Z,100336.47
2023-05-19T10:53:23.001Z,100334.75
2023-05-19T10:56:02.765Z,100325.13
2023-05-19T10:58:49.510Z,100315.00
2023-05-19T11:01:19.505Z,100311.75
2023-05-19T11:03:53.388Z,100319.88
2023-05-19T11:06:32.781Z,100318.63
2023-05-19T11:09:14.868Z,100316.06
2023-05-19T11:11:54.161Z,100313.91
2023-05-19T11:14:23.529Z,100305.25
2023-05-19T11:16:53.266Z,100309.19
2023-05-19T11:19:26.640Z,100308.47
2023-05-19T11:21:55.740Z,100303.50
2023-05-19T11:24:36.115Z,100309.13
2023-05-19T11:27:24.893Z,100300.50
2023-05-19T11:29:52.652Z,100292.91
2023-05-19T11:32:22.154Z,100285.63
2023-05-19T11:34:50.474Z,100288.53
2023-05-19T11:37:18.184Z,100280.78
2023-05-19T11:39:49.052Z,100278.44
2023-05-19T11:42:16.906Z,100275.69
2023-05-19T11:44:48.039Z,100261.06
2023-05-19T11:47:17.214Z,100270.53
2023-05-19T11:49:46.123Z,100268.06
2023-05-19T11:52:14.324Z,100256.50
2023-05-19T11:54:44.576Z,100254.94
2023-05-19T11:57:12.324Z,100248.19
2023-05-19T11:59:45.825Z,100242.34
2023-05-19T12:02:14.202Z,100238.16
2023-05-19T12:04:41.734Z,100231.03
2023-05-19T12:07:12.517Z,100247.16
2023-05-19T12:09:40.465Z,100236.69
2023-05-19T12:12:08.591Z,100231.13
2023-05-19T12:14:36.302Z,100232.81
2023-05-19T12:17:18.366Z,100230.34
2023-05-19T12:19:48.009Z,100218.97
2023-05-19T12:22:17.583Z,100227.59
2023-05-19T12:24:46.512Z,100222.44
2023-05-19T12:27:23.778Z,100220.25
2023-05-19T12:29:52.674Z,100209.47
2023-05-19T12:32:25.676Z,100202.94
2023-05-19T12:34:54.786Z,100206.91
2023-05-19T12:37:26.333Z,100201.31
2023-05-19T12:39:56.470Z,100211.88
2023-05-19T12:42:31.513Z,100194.78
2023-05-19T12:45:01.557Z,100197.47
2023-05-19T12:47:33.407Z,100203.63
2023-05-19T12:50:04.997Z,100199.69
2023-05-19T12:52:35.820Z,100198.63
2023-05-19T12:55:07.559Z,100191.97
2023-05-19T12:57:39.343Z,100195.59
2023-05-19T13:00:25.807Z,100177.94
2023-05-19T13:03:03.183Z,100199.44
2023-05-19T13:05:50.684Z,100177.69
2023-05-19T13:08:24.236Z,100178.75
2023-05-19T13:10:51.936Z,100181.50
2023-05-19T13:13:20.492Z,100183.47
2023-05-19T13:15:49.300Z,100187.75
2023-05-19T13:18:17.991Z,100177.13
2023-05-19T13:20:47.023Z,100173.81
2023-05-19T13:23:14.850Z,100164.16
2023-05-19T13:25:43.293Z,100176.94
2023-05-19T13:28:11.394Z,100185.66
2023-05-19T13:30:40.432Z,100184.13
2023-05-19T13:33:08.301Z,100187.19
2023-05-19T13:35:39.154Z,100185.06
2023-05-19T13:38:10.065Z,100189.44
2023-05-19T13:40:39.994Z,100185.28
2023-05-19T13:43:09.129Z,100184.69
2023-05-19T13:45:36.736Z,100172.66
2023-05-19T13:48:04.918Z,100180.97
2023-05-19T13:50:32.657Z,100171.84
2023-05-19T13:53:05.172Z,100184.03
2023-05-19T13:55:34.343Z,100187.03
2023-05-19T13:58:05.051Z,100178.47
2023-05-19T14:00:36.820Z,100179.88
2023-05-19T14:03:05.095Z,100179.28
2023-05-19T14:05:33.499Z,100187.59
2023-05-19T14:08:03.813Z,100171.88
2023-05-19T14:10:32.709Z,100178.22
2023-05-19T14:15:34.319Z,100165.97
2023-05-19T14:18:02.710Z,100181.38
2023-05-19T14:20:32.121Z,100170.88
2023-05-19T14:23:00.251Z,100174.69
2023-05-19T14:25:27.701Z,100173.34
2023-05-19T14:27:55.473Z,100174.72
2023-05-19T14:30:22.864Z,100166.03
2023-05-19T14:32:50.616Z,100175.22
2023-05-19T14:35:18.070Z,100167.16
2023-05-19T14:37:45.774Z,100178.41
2023-05-19T14:40:13.683Z,100168.09
2023-05-19T14:42:42.734Z,100175.34
2023-05-19T14:45:10.693Z,100180.88
2023-05-19T14:47:38.328Z,100170.16
2023-05-19T14:50:06.561Z,100176.84
2023-05-19T14:52:35.884Z,100163.88
2023-05-19T14:55:03.407Z,100182.59
2023-05-19T14:57:31.586Z,100183.44
2023-05-19T14:59:58.872Z,100171.84
2023-05-19T15:02:27.648Z,100179.25
2023-05-19T15:04:56.935Z,100173.53
2023-05-19T15:07:24.824Z,100180.44
2023-05-19T15:09:52.397Z,100183.72
2023-05-19T15:12:20.150Z,100186.50
2023-05-19T15:14:47.543Z,100188.69
2023-05-19T15:17:15.560Z,100191.50
2023-05-19T15:19:44.659Z,100177.66
2023-05-19T15:22:12.325Z,100173.28
2023-05-19T15:24:41.352Z,100179.59
2023-05-19T15:27:09.390Z,100180.47
2023-05-19T15:29:36.803Z,100180.69
2023-05-19T15:32:04.653Z,100179.28
2023-05-19T15:34:32.054Z,100179.78
2023-05-19T15:36:59.743Z,100173.03
2023-05-19T15:39:27.126Z,100175.47
2023-05-19T15:41:55.093Z,100178.31
2023-05-19T15:44:22.919Z,100179.72
2023-05-19T15:46:50.911Z,100183.56
2023-05-19T15:49:18.404Z,100178.50
2023-05-19T15:51:46.161Z,100179.47
2023-05-19T15:54:13.569Z,100179.28
2023-05-19T15:56:41.439Z,100177.81
2023-05-19T15:59:10.330Z,100182.88
2023-05-19T16:01:38.171Z,100175.53
2023-05-19T16:04:08.116Z,100166.66
2023-05-19T16:06:36.038Z,100152.56
2023-05-19T16:09:05.178Z,100168.66
2023-05-19T16:11:32.944Z,100167.44
2023-05-19T16:14:00.326Z,100163.16
2023-05-19T16:16:28.203Z,100165.78
2023-05-19T16:18:55.961Z,100162.94
2023-05-19T16:21:24.609Z,100152.59
2023-05-19T16:23:52.242Z,100161.75
2023-05-19T16:26:19.903Z,100137.03
2023-05-19T16:28:47.366Z,100132.69
2023-05-19T16:31:15.187Z,100145.09
2023-05-19T16:33:42.850Z,100146.75
2023-05-19T16:36:10.948Z,100122.84
2023-05-19T16:38:38.350Z,100122.72
2023-05-19T16:41:07.198Z,100129.78
2023-05-19T16:43:37.305Z,100122.38
2023-05-19T16:46:05.544Z,100125.28
2023-05-19T16:48:32.982Z,100124.03
2023-05-19T16:51:00.791Z,100125.28
2023-05-19T16:53:28.223Z,100123.00
2023-05-19T16:55:59.255Z,100120.19
2023-05-19T16:58:28.832Z,100119.53
2023-05-19T17:00:58.814Z,100125.00
2023-05-19T17:03:26.363Z,100126.97
2023-05-19T17:05:54.297Z,100122.03
2023-05-19T17:08:21.751Z,100126.69
2023-05-19T17:10:49.570Z,100131.22
2023-05-19T17:13:16.934Z,100133.97
2023-05-19T17:15:44.636Z,100133.25
2023-05-19T17:18:12.763Z,100139.00
2023-05-19T17:20:41.828Z,100127.09
2023-05-19T17:23:09.665Z,100117.06
2023-05-19T17:25:37.422Z,100118.13
2023-05-19T17:28:05.128Z,100105.31
2023-05-19T17:30:33.215Z,100125.84
2023-05-19T17:33:01.083Z,100113.13
2023-05-19T17:35:29.028Z,100126.91
2023-05-19T17:37:58.048Z,100113.53
2023-05-19T17:40:26.390Z,100129.16
2023-05-19T17:42:54.015Z,100120.34
2023-05-19T17:45:21.810Z,100132.72
2023-05-19T17:47:50.536Z,100118.84
2023-05-19T17:50:18.981Z,100123.84
2023-05-19T17:52:46.860Z,100127.09
2023-05-19T17:55:14.960Z,100121.75
2023-05-19T17:57:45.215Z,100122.00
2023-05-19T18:00:15.470Z,100116.44
2023-05-19T18:02:43.740Z,100122.75
2023-05-19T18:05:12.296Z,100103.41
2023-05-19T18:07:44.436Z,100113.22
2023-05-19T18:10:15.627Z,100113.59
2023-05-19T18:12:43.203Z,100098.88
2023-05-19T18:15:12.002Z,100094.34
2023-05-19T18:17:39.488Z,100101.47
2023-05-19T18:20:08.590Z,100084.97
2023-05-19T18:22:36.654Z,100102.91
2023-05-19T18:25:04.892Z,100095.28
2023-05-19T18:27:33.665Z,100088.06
2023-05-19T18:30:01.339Z,100088.03
2023-05-19T18:32:29.497Z,100096.72
2023-05-19T18:34:57.324Z,100076.88
2023-05-19T18:37:24.928Z,100090.53
2023-05-19T18:39:53.112Z,100093.59
2023-05-19T18:42:21.732Z,100089.53
2023-05-19T18:44:50.891Z,100092.13
2023-05-19T18:47:20.105Z,100086.38
2023-05-19T18:49:51.049Z,100095.63
2023-05-19T18:52:20.063Z,100092.50
2023-05-19T18:54:49.002Z,100099.19
2023-05-19T18:57:16.443Z,100099.50
2023-05-19T18:59:44.152Z,100098.53
2023-05-19T19:02:11.718Z,100098.53
2023-05-19T19:04:39.949Z,100101.34
2023-05-19T19:07:07.474Z,100102.72
2023-05-19T19:09:35.626Z,100102.41
2023-05-19T19:12:03.312Z,100105.28
2023-05-19T19:14:31.280Z,100110.06
2023-05-19T19:16:59.127Z,100105.44
2023-05-19T19:19:30.914Z,100104.00
2023-05-19T19:21:59.751Z,100116.50
2023-05-19T19:24:28.877Z,100097.41
2023-05-19T19:26:56.464Z,100124.34
2023-05-19T19:29:24.874Z,100122.75
2023-05-19T19:31:52.343Z,100113.44
2023-05-19T19:34:22.627Z,100124.28
2023-05-19T19:36:50.093Z,100114.34
2023-05-19T19:39:19.500Z,100145.13
2023-05-19T19:41:47.256Z,100144.50
2023-05-19T19:44:15.079Z,100144.34
2023-05-19T19:46:42.651Z,100139.81
2023-05-19T19:49:10.746Z,100130.13
2023-05-19T19:51:38.121Z,100142.16
2023-05-19T19:54:07.462Z,100144.78
2023-05-19T19:56:35.529Z,100147.59
2023-05-19T19:59:04.243Z,100153.13
2023-05-19T20:01:33.898Z,100155.25
2023-05-19T20:04:01.981Z,100157.38
2023-05-19T20:06:29.879Z,100158.63
2023-05-19T20:09:04.550Z,100172.09
2023-05-19T20:11:33.877Z,100171.94
2023-05-19T20:14:01.625Z,100164.06
2023-05-19T20:16:29.116Z,100185.28
2023-05-19T20:18:56.883Z,100166.72
2023-05-19T20:21:24.331Z,100183.78
2023-05-19T20:23:52.927Z,100182.19
2023-05-19T20:26:20.775Z,100175.38
2023-05-19T20:28:48.669Z,100170.84
2023-05-19T20:31:16.143Z,100188.94
2023-05-19T20:33:46.549Z,100169.25
2023-05-19T20:36:14.023Z,100173.72
2023-05-19T20:38:41.917Z,100164.16
2023-05-19T20:41:09.312Z,100164.72
2023-05-19T20:43:37.258Z,100169.44
2023-05-19T20:46:04.749Z,100150.59
2023-05-19T20:48:32.476Z,100152.75
2023-05-19T20:50:59.881Z,100157.69
2023-05-19T20:53:27.577Z,100150.13
2023-05-19T20:55:54.956Z,100133.88
2023-05-19T20:58:26.936Z,100143.88
2023-05-19T21:00:58.077Z,100135.94
2023-05-19T21:03:27.271Z,100130.94
2023-05-19T21:05:55.185Z,100136.34
2023-05-19T21:08:23.818Z,100130.78
2023-05-19T21:10:51.495Z,100126.22
2023-05-19T21:13:19.153Z,100125.50
2023-05-19T21:15:47.723Z,100122.59
2023-05-19T21:18:15.428Z,100123.47
2023-05-19T21:20:43.081Z,100114.97
2023-05-19T21:23:11.102Z,100128.13
2023-05-19T21:25:39.834Z,100113.09
2023-05-19T21:28:07.477Z,100123.09
2023-05-19T21:30:35.208Z,100116.22
2023-05-19T21:33:03.051Z,100122.31
2023-05-19T21:35:30.511Z,100125.00
2023-05-19T21:37:59.434Z,100108.50
2023-05-19T21:40:31.387Z,100114.13
2023-05-19T21:42:59.116Z,100122.25
2023-05-19T21:45:26.543Z,100119.53
2023-05-19T21:47:54.238Z,100112.75
2023-05-19T21:50:21.631Z,100119.50
2023-05-19T21:52:49.303Z,100129.25
2023-05-19T21:55:20.377Z,100127.00
2023-05-19T21:57:48.101Z,100115.34
2023-05-19T22:00:16.005Z,100115.91
2023-05-19T22:02:43.909Z,100110.28
2023-05-19T22:05:11.744Z,100107.56
2023-05-19T22:07:40.559Z,100125.31
2023-05-19T22:10:10.783Z,100109.91
2023-05-19T22:12:38.584Z,100116.38
2023-05-19T22:15:06.854Z,100093.66
2023-05-19T22:17:34.549Z,100112.19
2023-05-19T22:20:05.489Z,100111.19
2023-05-19T22:22:36.986Z,100102.03
2023-05-19T22:25:05.282Z,100103.88
2023-05-19T22:27:36.545Z,100099.91
2023-05-19T22:30:05.761Z,100089.03
2023-05-19T22:32:40.522Z,100085.88
2023-05-19T22:35:08.602Z,100084.03
2023-05-19T22:37:36.279Z,100080.31
2023-05-19T22:40:07.665Z,100070.28
2023-05-19T22:42:35.537Z,100086.13
2023-05-19T22:45:02.924Z,100078.81
2023-05-19T22:47:30.675Z,100076.38
2023-05-19T22:49:58.069Z,100060.75
2023-05-19T22:52:25.796Z,100063.06
2023-05-19T22:54:53.148Z,100075.31
2023-05-19T22:57:20.822Z,100073.69
2023-05-19T22:59:48.327Z,100078.47
2023-05-19T23:02:16.218Z,100073.50
2023-05-19T23:04:43.737Z,100076.88
2023-05-19T23:07:11.509Z,100063.53
2023-05-19T23:09:38.826Z,100085.44
2023-05-19T23:12:07.186Z,100089.19
2023-05-19T23:14:35.857Z,100086.72
2023-05-19T23:17:04.671Z,100094.47
2023-05-19T23:19:37.096Z,100074.38
2023-05-19T23:22:05.660Z,100070.84
2023-05-19T23:24:34.280Z,100063.13
2023-05-19T23:27:02.208Z,100064.19
2023-05-19T23:29:29.572Z,100063.38
2023-05-19T23:32:02.797Z,100071.75
2023-05-19T23:34:32.848Z,100068.44
2023-05-19T23:37:02.241Z,100069.09
2023-05-19T23:39:29.626Z,100066.38
2023-05-19T23:41:57.390Z,100074.72
2023-05-19T23:44:26.414Z,100068.47
2023-05-19T23:46:54.174Z,100064.31
2023-05-19T23:49:21.552Z,100065.16
2023-05-19T23:51:49.233Z,100068.09
2023-05-19T23:54:16.535Z,100048.69
2023-05-19T23:56:44.176Z,100066.84
2023-05-19T23:59:12.178Z,100058.06
